x

Big Carlos Pass, Fl (bgcf1) Weather Station

6:54pm - Thu 25th Dec 2014 All times are EST. -5 hours from GMT.

  • Wind
    6mph, 8mph gusts
  • Air Temp 70°f
  • Sea Pressure 1021.8mb
  • Big Carlos Pass, Fl
  • Big Carlos Pass, Fl

More Historic Weather Station data

Upgrade to MSW Pro to gain access to the past 30 days of data for over 8000 Wavebouys and Weather Stations around the globe.

Join Pro

Comparision Forecast

View Surf forecast
   
Thu 12/25 6:54pm 6 8 mph 1021.8mb 70f
6:48pm 5 8 mph 1021.8mb 70f
5:54pm 6 7 mph 1021.5mb 70f
5:48pm 7 8 mph 1021.3mb 70f
4:54pm 10 13 mph 1021mb 71f
4:48pm 10 13 mph 1020.9mb 71f
3:54pm 15 18 mph 1020.7mb 71f
3:48pm 14 17 mph 1020.7mb 71f
2:54pm 11 18 mph 1021mb 71f
2:48pm 13 17 mph 1020.9mb 71f
1:54pm 11 15 mph 1021mb 70f
1:48pm 14 20 mph 1020.9mb 70f
12:54pm 14 16 mph 1021.4mb 70f
12:48pm 14 20 mph 1021.4mb 70f
11:54am 14 17 mph 1021.9mb 69f
11:48am 16 21 mph 1022.1mb 69f
10:54am 11 14 mph 1022.6mb 69f
10:48am 11 14 mph 1022.6mb 69f
9:54am 16 18 mph 1022.3mb 68f
9:48am 14 17 mph 1022.3mb 68f
8:54am 14 17 mph 1021.5mb 68f
8:48am 15 18 mph 1021.4mb 68f
7:54am 11 15 mph 1020.3mb 68f
7:48am 11 15 mph 1020.2mb 68f
6:54am 8 10 mph 1019.1mb 69f
6:48am 9 13 mph 1019mb 69f
5:54am 7 10 mph 1018.4mb 69f
5:48am 7 10 mph 1018.2mb 69f
4:54am 8 11 mph 1017.8mb 69f
4:48am 9 14 mph 1017.8mb 69f
3:54am 6 7 mph 1017.3mb 69f
3:48am 6 7 mph 1017.1mb 69f
2:54am 6 8 mph 1016.5mb 69f
2:48am 7 8 mph 1016.5mb 69f
1:54am 6 8 mph 1016.6mb 69f
1:48am 7 8 mph 1016.5mb 69f
12:54am 9 10 mph 1016.1mb 68f
12:48am 10 14 mph 1016.1mb 69f
Wed 12/24 11:54pm 13 17 mph 1016mb 70f
11:48pm 15 20 mph 1015.8mb 70f
10:54pm 11 16 mph 1015.9mb 71f
10:48pm 10 16 mph 1015.7mb 71f
9:54pm 17 22 mph 1014.3mb 74f
9:48pm 17 21 mph 1014.2mb 74f
8:54pm 16 23 mph 1013.7mb 74f
8:48pm 15 21 mph 1013.8mb 74f
7:54pm 17 23 mph 1013.4mb 75f
7:48pm 17 22 mph 1013.3mb 75f
6:54pm 16 18 mph 1013.3mb 76f
6:48pm 16 22 mph 1013.2mb 76f
5:54pm 20 23 mph 1012.3mb 75f
5:48pm 21 26 mph 1012.2mb 75f
4:54pm 18 22 mph 1011.9mb 76f
4:48pm 20 23 mph 1011.9mb 76f
3:54pm 18 22 mph 1011.7mb 76f
3:48pm 18 24 mph 1011.8mb 76f
2:54pm 18 22 mph 1012.3mb 76f
2:48pm 18 23 mph 1012.3mb 76f
1:54pm 18 25 mph 1012.3mb 77f
1:48pm 20 23 mph 1012.3mb 77f
12:54pm 18 23 mph 1012.7mb 76f
12:48pm 17 22 mph 1012.8mb 76f
11:54am 17 23 mph 1013.3mb 77f
11:48am 18 23 mph 1013.3mb 77f
10:54am 20 23 mph 1013.9mb 77f
10:48am 17 23 mph 1014mb 77f
9:54am 14 18 mph 1014.2mb 76f
9:48am 14 16 mph 1014.1mb 76f
8:54am 8 11 mph 1013.5mb 76f
8:48am 8 13 mph 1013.5mb 76f
7:54am 10 14 mph 1012.8mb 73f
7:48am 9 14 mph 1012.7mb 73f
6:54am 8 10 mph 1012.3mb 73f
6:48am 9 13 mph 1012.3mb 73f
5:54am 9 13 mph 1012.3mb 73f
5:48am 8 10 mph 1012.3mb 73f
4:54am 10 17 mph 1012mb 73f
4:48am 10 14 mph 1011.9mb 73f
3:54am 10 15 mph 1012mb 74f
3:48am 11 16 mph 1012.2mb 74f
2:54am 11 18 mph 1012.7mb 74f
2:48am 14 18 mph 1012.7mb 74f
1:54am 13 16 mph 1012.8mb 74f
1:48am 13 20 mph 1012.8mb 74f
12:54am 11 15 mph 1012.8mb 74f
12:48am 10 15 mph 1012.8mb 74f
Tue 12/23 11:54pm 9 13 mph 1012.9mb 74f
11:48pm 9 11 mph 1012.8mb 74f
10:54pm 10 15 mph 1013.1mb 75f
10:48pm 10 16 mph 1013mb 75f
9:54pm 11 16 mph 1012.8mb 76f
9:48pm 13 16 mph 1012.7mb 76f
8:54pm 9 13 mph 1013.6mb 77f
8:48pm 9 13 mph 1013.7mb 77f
7:54pm 7 9 mph 1013.2mb 76f
7:48pm 6 9 mph 1013.1mb 75f
6:54pm 6 7 mph 1013mb 74f
6:48pm 6 7 mph 1013mb 75f
5:54pm 6 9 mph 1012.5mb 79f
5:48pm 7 9 mph 1012.5mb 79f
4:54pm 10 13 mph 1012.3mb 76f
4:48pm 10 15 mph 1012.2mb 76f
3:54pm 13 16 mph 1012.1mb 76f
3:48pm 13 17 mph 1012.1mb 75f
2:54pm 14 16 mph 1012.5mb 75f
2:48pm 14 17 mph 1012.5mb 75f
1:54pm 13 16 mph 1012.3mb 76f
1:48pm 13 16 mph 1012.4mb 76f
12:54pm 14 18 mph 1013.1mb 76f
12:48pm 14 16 mph 1013.3mb 77f
11:54am 10 14 mph 1014.5mb 76f
11:48am 10 13 mph 1014.5mb 78f
10:54am 11 15 mph 1015mb 77f
10:48am 11 15 mph 1015mb 77f
9:54am 10 16 mph 1014.8mb 75f
9:48am 10 14 mph 1014.9mb 75f
8:54am 7 10 mph 1014.9mb 73f
8:48am 8 11 mph 1014.8mb 72f
7:54am 9 14 mph 1014.5mb 71f
7:48am 8 11 mph 1014.5mb 71f
6:54am 6 8 mph 1014.5mb 71f
6:48am 7 9 mph 1014.4mb 71f
5:54am 7 10 mph 1013.8mb 71f
5:48am 7 10 mph 1013.8mb 71f
4:54am 6 8 mph 1013.6mb 70f
4:48am 6 7 mph 1013.7mb 70f
3:54am 7 9 mph 1013.4mb 70f
3:48am 7 10 mph 1013.5mb 70f
2:54am 6 8 mph 1013.9mb 69f
2:48am 7 8 mph 1013.8mb 69f
1:54am 5 6 mph 1014.3mb 70f
1:48am 5 7 mph 1014.4mb 70f